Terminal Aerodrome Forecast
Issued by NWS Sterling, VA

Home | Current Version | Previous Version | Text Only | Print | Product List | Glossary On
Versions: 1 2 3 4 5 6 7 8 9 10 11 12 13 14 15 16 17 18 19 20 21 22 23 24 25 26 27
000
FTUS41 KLWX 162034 AAA
TAFBWI
TAF AMD
KBWI 162034Z 1621/1724 24010KT P6SM SCT100
     FM170000 26005KT P6SM FEW130 FEW250
     FM171700 VRB03KT P6SM SCT045 BKN250=

USA.gov is the U.S. government's official web portal to all federal, state and local government web resources and services.